createdAt,value
2023-10-08T00:02:26.945Z,7.47
2023-10-08T00:05:14.889Z,6.45
2023-10-08T00:08:00.164Z,7.45
2023-10-08T00:10:46.215Z,6.57
2023-10-08T00:13:31.896Z,6.68
2023-10-08T00:16:18.284Z,3.72
2023-10-08T00:19:10.026Z,7.95
2023-10-08T00:21:55.253Z,6.72
2023-10-08T00:24:42.705Z,6.63
2023-10-08T00:27:28.423Z,7.18
2023-10-08T00:30:19.090Z,4.65
2023-10-08T00:33:05.557Z,5.95
2023-10-08T00:35:50.968Z,5.93
2023-10-08T00:38:37.711Z,7.63
2023-10-08T00:41:23.291Z,5.20
2023-10-08T00:44:09.518Z,5.20
2023-10-08T00:46:56.882Z,6.00
2023-10-08T00:49:44.039Z,7.50
2023-10-08T00:52:39.948Z,11.40
2023-10-08T00:55:34.903Z,4.95
2023-10-08T00:58:26.198Z,4.53
2023-10-08T01:01:12.400Z,7.78
2023-10-08T01:03:57.974Z,6.55
2023-10-08T01:06:43.566Z,13.20
2023-10-08T01:09:38.486Z,7.20
2023-10-08T01:12:27.382Z,5.35
2023-10-08T01:15:24.633Z,8.65
2023-10-08T01:18:16.290Z,7.63
2023-10-08T01:21:09.501Z,3.70
2023-10-08T01:23:55.929Z,5.38
2023-10-08T01:26:41.694Z,9.13
2023-10-08T01:29:29.512Z,4.78
2023-10-08T01:32:17.305Z,7.68
2023-10-08T01:35:04.795Z,9.18
2023-10-08T01:37:51.689Z,4.03
2023-10-08T01:40:37.249Z,7.50
2023-10-08T01:43:22.853Z,4.90
2023-10-08T01:46:12.688Z,8.57
2023-10-08T01:49:05.635Z,11.73
2023-10-08T01:51:51.064Z,8.20
2023-10-08T01:54:37.193Z,5.80
2023-10-08T01:57:23.848Z,7.50
2023-10-08T02:00:10.550Z,6.43
2023-10-08T02:03:00.632Z,6.03
2023-10-08T02:05:47.483Z,9.77
2023-10-08T02:08:33.308Z,9.93
2023-10-08T02:11:18.702Z,10.77
2023-10-08T02:14:05.943Z,8.82
2023-10-08T02:16:56.340Z,7.60
2023-10-08T02:19:42.717Z,7.40
2023-10-08T02:22:28.453Z,9.75
2023-10-08T02:25:14.930Z,9.90
2023-10-08T02:28:00.485Z,11.32
2023-10-08T02:30:45.762Z,12.20
2023-10-08T02:33:31.644Z,12.80
2023-10-08T02:36:17.072Z,12.18
2023-10-08T02:39:07.131Z,7.28
2023-10-08T02:41:53.935Z,12.60
2023-10-08T02:44:45.274Z,10.77
2023-10-08T02:47:30.841Z,13.48
2023-10-08T02:50:18.676Z,8.75
2023-10-08T02:53:11.953Z,18.42
2023-10-08T02:55:57.278Z,13.07
2023-10-08T02:58:45.063Z,9.75
2023-10-08T03:01:34.968Z,15.55
2023-10-08T03:04:20.727Z,10.63
2023-10-08T03:07:12.398Z,9.50
2023-10-08T03:10:07.747Z,8.50
2023-10-08T03:12:53.721Z,16.85
2023-10-08T03:15:47.998Z,13.15
2023-10-08T03:18:37.690Z,12.50
2023-10-08T03:21:43.841Z,10.02
2023-10-08T03:24:38.105Z,11.18
2023-10-08T03:27:27.334Z,11.50
2023-10-08T03:30:15.334Z,10.98
2023-10-08T03:33:05.608Z,13.60
2023-10-08T03:38:54.137Z,13.15
2023-10-08T03:41:41.175Z,8.45
2023-10-08T03:44:30.681Z,9.98
2023-10-08T03:47:16.004Z,12.63
2023-10-08T03:50:07.018Z,15.07
2023-10-08T03:52:52.228Z,15.35
2023-10-08T03:55:41.610Z,15.50
2023-10-08T03:58:30.512Z,11.70
2023-10-08T04:01:20.333Z,10.80
2023-10-08T04:04:06.075Z,11.63
2023-10-08T04:06:52.750Z,8.73
2023-10-08T04:09:43.334Z,20.15
2023-10-08T04:12:28.923Z,10.93
2023-10-08T04:15:17.474Z,11.90
2023-10-08T04:18:04.330Z,15.52
2023-10-08T04:21:05.682Z,17.25
2023-10-08T04:23:52.591Z,11.15
2023-10-08T04:26:41.347Z,8.63
2023-10-08T04:29:27.615Z,13.02
2023-10-08T04:32:23.789Z,9.40
2023-10-08T04:35:15.919Z,10.65
2023-10-08T04:38:01.467Z,13.88
2023-10-08T04:40:49.841Z,11.70
2023-10-08T04:43:38.937Z,12.55
2023-10-08T04:46:39.502Z,14.68
2023-10-08T04:49:31.173Z,8.02
2023-10-08T04:52:16.695Z,15.32
2023-10-08T04:55:13.756Z,8.73
2023-10-08T04:58:00.315Z,15.88
2023-10-08T05:00:54.570Z,14.32
2023-10-08T05:03:50.402Z,7.70
2023-10-08T05:06:36.451Z,7.10
2023-10-08T05:09:21.924Z,10.40
2023-10-08T05:12:29.558Z,7.88
2023-10-08T05:15:14.945Z,11.27
2023-10-08T05:18:15.151Z,11.73
2023-10-08T05:21:03.279Z,8.48
2023-10-08T05:24:09.385Z,9.80
2023-10-08T05:27:10.217Z,12.48
2023-10-08T05:30:14.344Z,9.45
2023-10-08T05:33:18.417Z,13.73
2023-10-08T05:36:11.221Z,9.80
2023-10-08T05:39:02.739Z,12.73
2023-10-08T05:42:06.299Z,15.85
2023-10-08T05:45:09.605Z,12.10
2023-10-08T05:48:13.685Z,11.18
2023-10-08T05:51:14.529Z,9.38
2023-10-08T05:54:00.215Z,9.40
2023-10-08T05:57:05.564Z,9.57
2023-10-08T05:59:57.235Z,9.10
2023-10-08T06:02:46.932Z,13.73
2023-10-08T06:05:44.268Z,8.23
2023-10-08T06:08:50.221Z,17.45
2023-10-08T06:11:45.280Z,16.50
2023-10-08T06:14:49.562Z,12.65
2023-10-08T06:17:46.027Z,11.35
2023-10-08T06:20:31.446Z,12.70
2023-10-08T06:23:21.949Z,8.18
2023-10-08T06:26:15.385Z,14.68
2023-10-08T06:29:07.875Z,10.35
2023-10-08T06:31:56.519Z,13.10
2023-10-08T06:34:42.096Z,10.83
2023-10-08T06:37:27.260Z,11.73
2023-10-08T06:40:45.728Z,9.68
2023-10-08T06:43:31.187Z,10.50
2023-10-08T06:46:22.327Z,16.75
2023-10-08T06:49:16.079Z,10.77
2023-10-08T06:52:02.915Z,7.50
2023-10-08T06:54:48.617Z,8.13
2023-10-08T06:57:34.068Z,15.63
2023-10-08T07:00:39.069Z,9.88
2023-10-08T07:03:25.849Z,6.82
2023-10-08T07:06:17.914Z,11.98
2023-10-08T07:09:07.758Z,9.35
2023-10-08T07:11:56.803Z,8.45
2023-10-08T07:14:44.447Z,8.98
2023-10-08T07:17:41.403Z,4.68
2023-10-08T07:20:27.302Z,3.80
2023-10-08T07:23:25.902Z,6.78
2023-10-08T07:26:19.000Z,7.70
2023-10-08T07:29:08.931Z,8.75
2023-10-08T07:31:54.322Z,4.80
2023-10-08T07:34:40.465Z,7.80
2023-10-08T07:37:27.414Z,5.15
2023-10-08T07:40:14.186Z,7.35
2023-10-08T07:43:09.357Z,4.82
2023-10-08T07:45:55.448Z,7.22
2023-10-08T07:48:43.967Z,3.05
2023-10-08T07:51:29.757Z,6.45
2023-10-08T07:54:17.646Z,8.88
2023-10-08T07:57:10.432Z,6.88
2023-10-08T07:59:59.334Z,5.50
2023-10-08T08:02:45.774Z,6.47
2023-10-08T08:05:30.824Z,5.03
2023-10-08T08:08:18.742Z,3.72
2023-10-08T08:11:08.110Z,6.00
2023-10-08T08:13:54.025Z,4.60
2023-10-08T08:16:39.191Z,4.22
2023-10-08T08:19:25.377Z,5.03
2023-10-08T08:22:16.386Z,6.55
2023-10-08T08:25:16.971Z,7.68
2023-10-08T08:28:02.741Z,5.25
2023-10-08T08:30:50.897Z,2.78
2023-10-08T08:33:54.602Z,3.80
2023-10-08T08:36:41.112Z,4.35
2023-10-08T08:39:38.818Z,7.85
2023-10-08T08:42:24.527Z,9.25
2023-10-08T08:45:14.284Z,4.32
2023-10-08T08:48:00.118Z,2.92
2023-10-08T08:50:47.760Z,3.67
2023-10-08T08:53:33.494Z,4.47
2023-10-08T08:56:19.017Z,4.05
2023-10-08T08:59:05.867Z,3.40
2023-10-08T09:01:52.853Z,1.42
2023-10-08T09:04:39.218Z,3.42
2023-10-08T09:07:24.933Z,3.53
2023-10-08T09:10:13.397Z,5.35
2023-10-08T09:13:00.319Z,1.70
2023-10-08T09:15:45.937Z,3.53
2023-10-08T09:18:33.476Z,4.57
2023-10-08T09:21:23.414Z,5.05
2023-10-08T09:24:12.622Z,3.47
2023-10-08T09:26:59.351Z,3.05
2023-10-08T09:29:45.545Z,1.95
2023-10-08T09:32:31.521Z,3.00
2023-10-08T09:35:18.065Z,2.00
2023-10-08T09:38:04.886Z,3.45
2023-10-08T09:40:50.581Z,4.00
2023-10-08T09:43:37.806Z,3.05
2023-10-08T09:46:30.237Z,2.85
2023-10-08T09:49:17.632Z,4.43
2023-10-08T09:52:07.163Z,4.78
2023-10-08T09:55:06.069Z,2.63
2023-10-08T09:57:56.549Z,0.45
2023-10-08T10:00:45.767Z,1.77
2023-10-08T10:03:31.966Z,0.70
2023-10-08T10:06:19.809Z,1.45
2023-10-08T10:09:16.792Z,2.13
2023-10-08T10:12:02.468Z,1.77
2023-10-08T10:14:49.516Z,1.60
2023-10-08T10:17:44.431Z,4.65
2023-10-08T10:20:35.542Z,3.50
2023-10-08T10:23:54.902Z,2.20
2023-10-08T10:26:41.428Z,2.35
2023-10-08T10:29:27.768Z,4.53
2023-10-08T10:32:16.088Z,1.05
2023-10-08T10:35:04.519Z,1.88
2023-10-08T10:37:53.134Z,1.45
2023-10-08T10:40:43.554Z,2.05
2023-10-08T10:43:33.556Z,2.55
2023-10-08T10:46:32.148Z,2.85
2023-10-08T10:49:31.424Z,2.45
2023-10-08T10:52:27.495Z,2.38
2023-10-08T10:55:17.949Z,5.22
2023-10-08T10:58:05.318Z,4.50
2023-10-08T11:00:58.609Z,1.35
2023-10-08T11:03:45.504Z,1.48
2023-10-08T11:06:34.174Z,1.65
2023-10-08T11:09:36.902Z,2.37
